Time;durP1;ratioP1;P1;durP2;ratioP2;P2;SDS_P1;SDS_P2;PMS_P1;PMS_P2;Temp;Humidity;BMP_temperature;BMP_pressure;BME280_temperature;BME280_humidity;BME280_pressure;Samples;Min_cycle;Max_cycle;Signal;HPM_P1;HPM_P2
2024/01/31 00:01:02;;;;;;;7.22;4.05;;;6.80;99.90;;;10.36;100.00;102201.72;5033059;28;20025;-75
2024/01/31 00:03:27;;;;;;;6.38;3.70;;;6.90;99.90;;;10.06;100.00;102211.56;5028578;28;20513;-75
2024/01/31 00:05:53;;;;;;;6.18;3.55;;;6.90;99.90;;;10.16;100.00;102211.34;5032302;28;20044;-74
2024/01/31 00:08:19;;;;;;;8.13;3.78;;;6.90;99.90;;;10.45;100.00;102210.75;5031959;28;20091;-75
2024/01/31 00:10:44;;;;;;;7.22;3.75;;;6.90;99.90;;;9.60;100.00;102221.22;5028324;28;20030;-74
2024/01/31 00:13:10;;;;;;;6.70;3.65;;;6.90;99.90;;;9.96;100.00;102219.09;5031136;28;20037;-75
2024/01/31 00:15:36;;;;;;;6.68;3.28;;;6.90;99.90;;;10.14;100.00;102227.91;5032515;28;20547;-75
2024/01/31 00:18:01;;;;;;;7.72;3.80;;;7.00;99.90;;;10.09;100.00;102227.59;5032507;28;20038;-74
2024/01/31 00:20:27;;;;;;;6.05;3.33;;;7.00;99.90;;;10.32;100.00;102232.25;5031969;28;20041;-74
2024/01/31 00:22:53;;;;;;;6.07;3.40;;;6.90;99.90;;;10.02;100.00;102227.44;5031993;28;20045;-75
2024/01/31 00:25:18;;;;;;;8.27;3.63;;;6.90;99.90;;;10.35;100.00;102224.59;5032274;28;20043;-75
2024/01/31 00:27:44;;;;;;;6.82;3.75;;;6.90;99.90;;;10.43;100.00;102236.50;5032525;28;20040;-74
2024/01/31 00:30:11;;;;;;;6.63;3.38;;;6.90;99.90;;;10.14;100.00;102236.09;5047627;28;20474;-75
2024/01/31 00:32:37;;;;;;;6.50;3.38;;;7.00;99.90;;;10.64;100.00;102241.38;5032237;28;20040;-75
2024/01/31 00:35:03;;;;;;;5.15;3.05;;;6.90;99.90;;;10.08;100.00;102231.34;5031952;28;20037;-75
2024/01/31 00:37:29;;;;;;;7.22;3.22;;;6.90;99.90;;;9.66;100.00;102240.63;5014233;28;20041;-75
2024/01/31 00:39:55;;;;;;;4.57;2.33;;;6.80;99.90;;;9.68;100.00;102249.47;5030936;28;20052;-75
2024/01/31 00:42:20;;;;;;;5.53;2.83;;;6.70;99.90;;;9.45;100.00;102242.84;4999421;28;20047;-74
2024/01/31 00:44:46;;;;;;;6.47;2.60;;;6.60;99.90;;;9.53;100.00;102235.69;5032377;28;20338;-75
2024/01/31 00:47:12;;;;;;;6.70;2.60;;;6.50;99.90;;;9.69;100.00;102235.69;5027655;28;20042;-74
2024/01/31 00:49:37;;;;;;;4.15;2.00;;;6.50;99.90;;;9.61;100.00;102238.38;5031847;28;20043;-74
2024/01/31 00:52:04;;;;;;;7.43;2.20;;;6.40;99.90;;;9.68;100.00;102230.38;5032011;28;20405;-74
2024/01/31 00:54:30;;;;;;;5.35;2.20;;;6.40;99.90;;;9.52;100.00;102233.97;5032112;28;20053;-74
2024/01/31 00:56:55;;;;;;;6.80;3.05;;;6.30;99.90;;;9.73;100.00;102230.72;5031766;28;20046;-74
2024/01/31 00:59:21;;;;;;;6.57;2.50;;;6.30;99.90;;;9.48;100.00;102242.50;5030555;28;20124;-74
2024/01/31 01:01:47;;;;;;;5.53;2.78;;;6.20;99.90;;;9.45;100.00;102231.06;5031112;28;20034;-75
2024/01/31 01:04:12;;;;;;;7.63;3.08;;;6.20;99.90;;;9.52;100.00;102245.72;5031243;28;20409;-75
2024/01/31 01:06:41;;;;;;;7.78;2.70;;;6.20;99.90;;;9.36;100.00;102243.84;5032024;28;20044;-74
2024/01/31 01:09:07;;;;;;;5.88;2.40;;;6.20;99.90;;;9.75;100.00;102237.72;5031760;28;20076;-75
2024/01/31 01:11:33;;;;;;;7.15;2.47;;;6.20;99.90;;;9.54;100.00;102234.66;5030059;28;20057;-74
2024/01/31 01:13:58;;;;;;;5.70;2.30;;;6.20;99.90;;;9.54;100.00;102245.56;5010908;28;20040;-74
2024/01/31 01:16:24;;;;;;;7.63;2.40;;;6.30;99.90;;;9.79;100.00;102232.75;5030932;28;20424;-74
2024/01/31 01:18:50;;;;;;;5.55;2.17;;;6.20;99.90;;;9.58;100.00;102236.88;5030957;28;20112;-74
2024/01/31 01:21:15;;;;;;;5.72;2.15;;;6.20;99.90;;;9.56;100.00;102233.47;5046668;28;20108;-76
2024/01/31 01:23:41;;;;;;;6.25;2.30;;;6.30;99.90;;;9.36;100.00;102243.84;5013526;28;20041;-74
2024/01/31 01:26:07;;;;;;;4.30;2.30;;;6.30;99.90;;;9.79;100.00;102232.75;5013003;28;20088;-74
2024/01/31 01:28:32;;;;;;;6.75;2.28;;;6.30;99.90;;;9.56;100.00;102241.66;5031013;28;20038;-75
2024/01/31 01:30:58;;;;;;;9.48;2.47;;;6.30;99.90;;;9.91;100.00;102234.09;5031148;28;20034;-74
2024/01/31 01:33:24;;;;;;;6.90;2.35;;;6.20;99.90;;;9.61;100.00;102241.13;5012754;28;20037;-74
2024/01/31 01:35:49;;;;;;;4.68;2.10;;;6.30;99.90;;;9.75;100.00;102247.75;5031196;28;20036;-75
2024/01/31 01:38:15;;;;;;;6.43;2.30;;;6.20;99.90;;;9.69;100.00;102243.84;5031260;28;20400;-75
2024/01/31 01:40:45;;;;;;;5.95;2.15;;;6.20;99.90;;;9.38;100.00;102249.97;5031390;28;20041;-75
2024/01/31 01:43:17;;;;;;;5.95;2.10;;;6.30;99.90;;;9.69;100.00;102253.88;5045751;28;20029;-75
2024/01/31 01:45:44;;;;;;;4.75;2.20;;;6.30;99.90;;;9.17;100.00;102255.91;5031006;28;20539;-76
2024/01/31 01:48:17;;;;;;;5.68;2.90;;;6.30;99.90;;;9.34;100.00;102257.66;5030704;28;20124;-75
2024/01/31 01:50:45;;;;;;;4.88;2.47;;;6.30;99.90;;;9.40;100.00;102260.72;5029487;28;20053;-74
2024/01/31 01:53:11;;;;;;;7.15;2.28;;;6.30;99.90;;;9.45;100.00;102263.78;5029145;28;20033;-75
2024/01/31 01:55:41;;;;;;;6.22;2.72;;;6.30;99.90;;;9.07;100.00;102267.81;5030182;28;20060;-75
2024/01/31 01:58:06;;;;;;;5.65;2.30;;;6.20;99.90;;;8.89;100.00;102273.41;5021975;28;20091;-75
2024/01/31 02:00:34;;;;;;;5.38;2.20;;;6.10;99.90;;;9.17;100.00;102272.25;5030927;28;20041;-75
2024/01/31 02:03:01;;;;;;;;;;;6.00;99.90;;;8.80;100.00;102270.81;5030734;28;20103;-76
2024/01/31 02:05:29;;;;;;;6.22;2.72;;;6.00;99.90;;;8.25;100.00;102283.81;5002606;28;19928;-76
2024/01/31 02:07:55;;;;;;;6.93;2.88;;;5.90;99.90;;;8.89;100.00;102287.00;5030020;28;20033;-75
2024/01/31 02:10:22;;;;;;;7.57;2.78;;;5.90;99.90;;;8.44;100.00;102294.44;5012992;28;20116;-76
2024/01/31 02:12:48;;;;;;;4.30;2.35;;;5.90;99.90;;;8.30;100.00;102301.31;5030343;28;20037;-75
2024/01/31 02:15:13;;;;;;;5.82;2.38;;;5.90;99.90;;;8.52;100.00;102295.53;5011929;28;20041;-76
2024/01/31 02:17:39;;;;;;;6.05;2.67;;;5.80;99.90;;;8.23;100.00;102299.44;5030299;28;20506;-76
2024/01/31 02:20:05;;;;;;;5.30;2.40;;;5.80;99.90;;;8.36;100.00;102297.13;5025818;28;20034;-76
2024/01/31 02:22:31;;;;;;;4.57;2.30;;;5.90;99.90;;;8.52;100.00;102306.41;5029150;28;20052;-76
2024/01/31 02:24:59;;;;;;;5.00;2.60;;;5.90;99.90;;;8.60;100.00;102310.00;5012562;28;20120;-76
2024/01/31 02:27:25;;;;;;;7.60;2.95;;;5.90;99.90;;;8.27;100.00;102314.41;5029634;28;20057;-76
2024/01/31 02:29:50;;;;;;;4.97;2.30;;;5.80;99.90;;;8.70;100.00;102318.03;4981971;28;20077;-76
2024/01/31 02:32:16;;;;;;;4.25;2.38;;;5.80;99.90;;;8.80;100.00;102308.91;5029183;28;20041;-76
2024/01/31 02:34:42;;;;;;;4.53;1.67;;;5.90;99.90;;;8.37;100.00;102308.84;5029628;28;20033;-77
2024/01/31 02:37:07;;;;;;;4.63;2.22;;;5.80;99.90;;;8.15;100.00;102308.38;5030409;28;20091;-76
2024/01/31 02:39:33;;;;;;;8.35;1.98;;;5.90;99.90;;;8.63;100.00;102322.44;5029730;28;20052;-75
2024/01/31 02:41:59;;;;;;;3.05;1.75;;;5.90;99.90;;;8.18;100.00;102317.06;5013048;28;20049;-76
2024/01/31 02:44:26;;;;;;;3.78;1.60;;;5.90;99.90;;;8.30;100.00;102327.69;5012319;28;20078;-76
2024/01/31 02:46:52;;;;;;;2.13;1.20;;;5.90;99.90;;;8.23;100.00;102319.31;5012355;28;20128;-77
2024/01/31 02:49:17;;;;;;;3.72;1.10;;;6.00;99.90;;;8.47;100.00;102334.06;5011955;28;20041;-76
2024/01/31 02:51:43;;;;;;;2.95;1.00;;;5.90;99.90;;;7.87;100.00;102333.81;5030082;28;20033;-76
2024/01/31 02:54:09;;;;;;;2.22;0.88;;;5.80;99.90;;;8.31;100.00;102335.66;5024876;28;20041;-76
2024/01/31 02:56:34;;;;;;;1.73;0.88;;;5.70;99.90;;;8.51;100.00;102340.91;5027944;28;20034;-76
2024/01/31 02:59:00;;;;;;;3.25;1.10;;;5.60;99.90;;;8.19;100.00;102320.63;5009795;28;20087;-76
2024/01/31 03:01:26;;;;;;;2.88;1.10;;;5.60;99.90;;;7.42;100.00;102318.47;5044427;28;20040;-77
2024/01/31 03:03:51;;;;;;;3.17;0.98;;;5.50;99.90;;;7.81;100.00;102337.19;5012236;28;20103;-76
2024/01/31 03:06:17;;;;;;;3.15;0.80;;;5.50;99.90;;;8.01;100.00;102340.56;5029673;28;20048;-75
2024/01/31 03:08:43;;;;;;;3.45;0.88;;;5.50;99.90;;;8.18;100.00;102337.97;5044548;28;20037;-75
2024/01/31 03:11:09;;;;;;;2.38;0.60;;;5.50;99.90;;;7.57;100.00;102326.97;5028079;28;20047;-75
2024/01/31 03:13:34;;;;;;;2.72;0.70;;;5.50;99.90;;;8.34;100.00;102346.22;5030564;28;20038;-74
2024/01/31 03:16:00;;;;;;;2.22;0.80;;;5.50;99.90;;;8.23;100.00;102341.06;5029022;28;20045;-75
2024/01/31 03:18:26;;;;;;;3.35;0.70;;;5.50;99.90;;;8.26;100.00;102339.91;5029593;28;20038;-76
2024/01/31 03:20:54;;;;;;;2.67;0.63;;;5.50;99.90;;;8.43;100.00;102336.25;5028549;28;20033;-75
2024/01/31 03:23:20;;;;;;;2.60;0.60;;;5.50;99.90;;;8.27;100.00;102328.84;5029345;28;20046;-75
2024/01/31 03:25:45;;;;;;;2.03;0.50;;;5.50;99.90;;;8.66;100.00;102330.28;5029859;28;20038;-75
2024/01/31 03:28:11;;;;;;;3.15;0.65;;;5.50;99.90;;;8.72;100.00;102326.06;5029371;28;20041;-75
2024/01/31 03:30:37;;;;;;;3.45;0.82;;;5.50;99.90;;;9.00;100.00;102336.72;5029790;28;20381;-75
2024/01/31 03:33:03;;;;;;;1.70;0.57;;;5.50;99.90;;;8.96;100.00;102333.44;5029299;28;20034;-75
2024/01/31 03:35:28;;;;;;;1.65;0.50;;;5.50;99.90;;;9.05;100.00;102343.38;5029742;28;20311;-75
2024/01/31 03:37:54;;;;;;;1.88;0.70;;;5.50;99.90;;;8.60;100.00;102348.09;5011852;28;20489;-75
2024/01/31 03:40:20;;;;;;;2.92;0.77;;;5.50;99.90;;;8.90;100.00;102343.16;5032455;28;20079;-76
2024/01/31 03:42:45;;;;;;;2.55;0.60;;;5.50;99.90;;;8.79;100.00;102340.72;5028363;28;20052;-75
2024/01/31 03:45:11;;;;;;;3.35;0.98;;;5.50;99.90;;;8.51;100.00;102335.47;5033240;28;20044;-75
2024/01/31 03:47:37;;;;;;;3.30;0.65;;;5.50;99.90;;;8.78;100.00;102339.00;5032649;28;20042;-75
2024/01/31 03:50:04;;;;;;;2.63;0.80;;;5.50;99.90;;;8.71;100.00;102341.50;5014955;28;22168;-75
2024/01/31 03:52:30;;;;;;;4.10;0.73;;;5.50;99.90;;;8.71;100.00;102338.78;5033077;28;20042;-75
2024/01/31 03:54:56;;;;;;;3.35;0.93;;;5.50;99.90;;;9.03;100.00;102341.81;5033107;28;20386;-75
2024/01/31 03:57:22;;;;;;;2.17;1.00;;;5.50;99.90;;;9.14;100.00;102332.50;5047323;28;20040;-75
2024/01/31 03:59:48;;;;;;;5.78;1.08;;;5.50;99.90;;;9.13;100.00;102338.97;5031639;28;20029;-75
2024/01/31 04:02:14;;;;;;;3.17;1.05;;;5.40;99.90;;;8.82;100.00;102343.09;5047913;28;20060;-75
2024/01/31 04:04:40;;;;;;;2.33;1.10;;;5.50;99.90;;;8.78;100.00;102352.59;5048125;28;20393;-75
2024/01/31 04:07:06;;;;;;;3.80;1.00;;;5.40;99.90;;;8.99;100.00;102346.72;5033066;28;20034;-75
2024/01/31 04:09:31;;;;;;;5.13;1.17;;;5.40;99.90;;;8.72;100.00;102343.22;5032656;28;20551;-75
2024/01/31 04:11:58;;;;;;;3.08;1.10;;;5.40;99.90;;;8.60;100.00;102356.25;5032917;28;20382;-75
2024/01/31 04:14:24;;;;;;;2.13;1.10;;;5.30;99.90;;;8.31;100.00;102359.28;5032922;28;20052;-75
2024/01/31 04:16:50;;;;;;;5.45;1.30;;;5.30;99.90;;;8.35;100.00;102356.09;5032548;28;20025;-75
2024/01/31 04:19:16;;;;;;;4.32;1.30;;;5.20;99.90;;;8.10;100.00;102357.78;5032124;28;20762;-75
2024/01/31 04:21:41;;;;;;;3.55;1.48;;;5.10;99.90;;;8.52;100.00;102367.09;5032994;28;20048;-76
2024/01/31 04:24:07;;;;;;;3.30;1.40;;;5.10;99.90;;;8.44;100.00;102362.44;5031721;28;20029;-75
2024/01/31 04:26:33;;;;;;;7.65;1.58;;;5.00;99.90;;;8.36;100.00;102367.81;5032324;28;20033;-76
2024/01/31 04:28:58;;;;;;;4.93;1.50;;;5.00;99.90;;;7.67;100.00;102365.75;5047986;28;20048;-75
2024/01/31 04:31:24;;;;;;;5.03;1.77;;;4.90;99.90;;;8.27;100.00;102366.06;5031132;28;20041;-75
2024/01/31 04:33:50;;;;;;;4.93;1.52;;;4.80;99.90;;;8.37;100.00;102371.41;5032272;28;20563;-75
2024/01/31 04:36:15;;;;;;;6.00;1.85;;;4.80;99.90;;;8.46;100.00;102371.28;5032257;28;20026;-75
2024/01/31 04:38:41;;;;;;;3.00;1.50;;;4.80;99.90;;;7.94;100.00;102373.94;5030377;28;20492;-75
2024/01/31 04:41:07;;;;;;;4.53;1.58;;;4.80;99.90;;;8.29;100.00;102373.03;5011774;28;20038;-75
2024/01/31 04:43:33;;;;;;;6.90;1.90;;;4.80;99.90;;;8.15;100.00;102379.91;5013986;28;20108;-76
2024/01/31 04:45:59;;;;;;;5.32;1.38;;;4.70;99.90;;;8.13;100.00;102364.78;5014814;28;20108;-76
2024/01/31 04:48:25;;;;;;;4.75;1.75;;;4.70;99.90;;;8.03;100.00;102362.16;5032044;28;20043;-76
2024/01/31 04:50:51;;;;;;;3.78;1.63;;;4.70;99.90;;;8.23;100.00;102359.25;5030367;28;20912;-76
2024/01/31 04:53:16;;;;;;;5.53;1.65;;;4.70;99.90;;;8.11;100.00;102359.50;5029998;28;20485;-76
2024/01/31 04:55:44;;;;;;;6.93;1.50;;;4.70;99.90;;;8.29;100.00;102372.19;5010480;28;20041;-76
2024/01/31 04:58:10;;;;;;;3.47;1.33;;;4.60;99.90;;;8.21;100.00;102371.09;5029526;28;20045;-76
2024/01/31 05:00:36;;;;;;;3.95;1.60;;;4.60;99.90;;;8.26;100.00;102375.25;5031327;28;20179;-76
2024/01/31 05:03:01;;;;;;;6.82;1.52;;;4.60;99.90;;;8.35;100.00;102374.28;5030352;28;20493;-76
2024/01/31 05:05:27;;;;;;;4.78;1.50;;;4.70;99.90;;;8.31;100.00;102371.00;5030452;28;20040;-75
2024/01/31 05:07:53;;;;;;;3.28;1.70;;;4.70;99.90;;;8.12;100.00;102377.50;5030974;28;20033;-76
2024/01/31 05:10:20;;;;;;;4.55;1.20;;;4.70;99.90;;;8.40;100.00;102380.09;5031199;28;20037;-76
2024/01/31 05:12:45;;;;;;;5.88;1.60;;;4.70;99.90;;;8.36;100.00;102384.13;5013132;28;20034;-76
2024/01/31 05:15:12;;;;;;;5.10;1.60;;;4.70;99.90;;;8.66;100.00;102389.28;5031914;28;20041;-77
2024/01/31 05:17:39;;;;;;;5.10;1.70;;;4.70;99.90;;;8.15;100.00;102385.34;5031531;28;20037;-76
2024/01/31 05:20:06;;;;;;;5.75;1.63;;;4.70;99.90;;;8.36;100.00;102389.56;5031485;28;20037;-76
2024/01/31 05:22:32;;;;;;;4.38;1.50;;;4.70;99.90;;;8.39;100.00;102385.69;5030959;28;20037;-76
2024/01/31 05:24:57;;;;;;;2.72;1.35;;;4.70;99.90;;;8.17;100.00;102383.31;5031481;28;20511;-76
2024/01/31 05:27:23;;;;;;;3.83;1.42;;;4.70;99.90;;;7.53;100.00;102388.88;5025106;28;20041;-76
2024/01/31 05:29:49;;;;;;;5.55;1.17;;;4.70;99.90;;;7.63;100.00;102400.50;5030867;28;20115;-76
2024/01/31 05:32:15;;;;;;;3.40;1.50;;;4.70;99.90;;;7.92;100.00;102393.16;5029460;28;20048;-77
2024/01/31 05:34:44;;;;;;;5.07;1.60;;;4.70;99.90;;;7.63;100.00;102399.69;5030790;28;20099;-77
2024/01/31 05:37:09;;;;;;;7.03;1.95;;;4.70;99.90;;;7.37;100.00;102402.28;5041218;28;20037;-77
2024/01/31 05:39:35;;;;;;;5.68;1.58;;;4.60;99.90;;;8.27;100.00;102407.69;5047428;28;20040;-77
2024/01/31 05:42:02;;;;;;;5.78;1.50;;;4.60;99.90;;;7.38;100.00;102395.84;5016686;28;20041;-77
2024/01/31 05:44:27;;;;;;;3.78;1.48;;;4.60;99.90;;;8.16;100.00;102400.66;5017410;28;20494;-77
2024/01/31 05:46:53;;;;;;;3.88;1.48;;;4.60;99.90;;;7.79;100.00;102388.13;5036419;28;20044;-77
2024/01/31 05:49:19;;;;;;;2.42;1.05;;;4.60;99.90;;;8.07;100.00;102385.28;5035668;28;20037;-77
2024/01/31 05:51:44;;;;;;;2.28;1.08;;;4.60;99.90;;;7.82;100.00;102385.06;5031697;28;20405;-77
2024/01/31 05:54:10;;;;;;;4.75;1.10;;;4.60;99.90;;;8.18;100.00;102398.63;5030768;28;20033;-77
2024/01/31 05:56:37;;;;;;;1.95;0.88;;;4.60;99.90;;;8.19;100.00;102394.88;5028883;28;20497;-76
2024/01/31 05:59:03;;;;;;;5.28;1.10;;;4.60;99.90;;;8.35;100.00;102401.47;5030294;28;20045;-77
2024/01/31 06:01:28;;;;;;;5.30;0.82;;;4.60;99.90;;;8.44;100.00;102405.94;5026189;28;20033;-77
2024/01/31 06:03:54;;;;;;;3.38;0.70;;;4.60;99.90;;;8.31;100.00;102411.81;5015853;28;20111;-77
2024/01/31 06:06:20;;;;;;;2.17;0.60;;;4.60;99.90;;;8.48;100.00;102414.66;5030314;28;20041;-77
2024/01/31 06:08:45;;;;;;;4.47;0.85;;;4.60;99.90;;;7.78;100.00;102402.72;5048807;28;20098;-78
2024/01/31 06:11:11;;;;;;;3.25;0.68;;;4.60;99.90;;;7.98;100.00;102408.81;5029498;28;20473;-77
2024/01/31 06:13:38;;;;;;;2.78;1.75;;;4.60;99.90;;;8.16;100.00;102422.41;5038710;28;20033;-76
2024/01/31 06:16:04;;;;;;;2.53;0.63;;;4.70;99.90;;;8.46;100.00;102425.69;5035244;28;20083;-76
2024/01/31 06:18:34;;;;;;;2.63;0.73;;;4.70;99.90;;;8.22;100.00;102415.47;5033419;28;20484;-76
2024/01/31 06:21:01;;;;;;;3.20;0.57;;;4.60;99.90;;;8.44;100.00;102422.25;5030461;28;20552;-76
2024/01/31 06:23:27;;;;;;;1.60;0.50;;;4.70;99.90;;;8.43;100.00;102422.44;5029238;28;20120;-75
2024/01/31 06:25:52;;;;;;;1.10;0.60;;;4.70;99.90;;;8.59;100.00;102419.84;5028058;28;20125;-76
2024/01/31 06:28:18;;;;;;;4.75;0.70;;;4.70;99.90;;;8.30;100.00;102434.56;5028298;28;20111;-76
2024/01/31 06:30:44;;;;;;;2.65;0.50;;;4.70;99.90;;;7.48;100.00;102431.94;5007470;28;20113;-76
2024/01/31 06:33:14;;;;;;;1.73;0.57;;;4.70;99.90;;;7.12;100.00;102434.56;5028467;28;20022;-77
2024/01/31 06:35:41;;;;;;;2.72;0.50;;;4.80;99.90;;;7.75;100.00;102435.63;5027557;28;20037;-75
2024/01/31 06:38:07;;;;;;;2.80;0.60;;;4.80;99.90;;;8.26;100.00;102426.91;5021715;28;20033;-76
2024/01/31 06:40:33;;;;;;;3.70;0.77;;;4.80;99.90;;;7.64;100.00;102436.69;5027272;28;20048;-76
2024/01/31 06:42:59;;;;;;;4.03;0.80;;;4.70;99.90;;;7.17;100.00;102446.69;5029529;28;20025;-77
2024/01/31 06:45:25;;;;;;;4.05;1.05;;;4.70;99.90;;;7.83;100.00;102424.84;5029609;28;20042;-75
2024/01/31 06:47:52;;;;;;;2.42;0.90;;;4.70;99.90;;;6.87;100.00;102431.50;5029538;28;20040;-77
2024/01/31 06:50:18;;;;;;;2.65;0.88;;;4.80;99.90;;;7.27;100.00;102437.63;5028995;28;20029;-75
2024/01/31 06:52:45;;;;;;;3.83;0.75;;;4.80;99.90;;;7.31;100.00;102448.03;5029065;28;20045;-74
2024/01/31 06:55:14;;;;;;;3.47;0.77;;;4.80;99.90;;;8.19;100.00;102434.84;5024454;28;20440;-75
2024/01/31 06:57:42;;;;;;;2.65;0.80;;;4.70;99.90;;;8.04;100.00;102429.09;5029647;28;20049;-74
2024/01/31 07:00:12;;;;;;;1.38;0.90;;;4.70;99.90;;;7.24;100.00;102449.66;5028483;28;20033;-74
2024/01/31 07:02:38;;;;;;;1.55;0.75;;;4.70;99.90;;;7.71;100.00;102442.38;5026836;28;20119;-75
2024/01/31 07:05:05;;;;;;;3.80;0.85;;;4.70;99.90;;;8.28;100.00;102436.59;5029276;28;20505;-75
2024/01/31 07:07:33;;;;;;;7.32;0.90;;;4.70;99.90;;;8.26;100.00;102448.66;5025061;28;20040;-75
2024/01/31 07:09:59;;;;;;;2.10;0.70;;;4.70;99.90;;;7.81;100.00;102455.88;5027521;28;20034;-75
2024/01/31 07:12:24;;;;;;;1.63;0.70;;;4.70;99.90;;;7.47;100.00;102460.94;5043554;28;20041;-76
2024/01/31 07:14:50;;;;;;;3.15;0.80;;;4.70;99.90;;;7.76;100.00;102454.47;5030260;28;20048;-77
2024/01/31 07:17:16;;;;;;;3.92;1.05;;;4.70;99.90;;;7.73;100.00;102459.38;5032662;28;20044;-77
2024/01/31 07:19:45;;;;;;;4.30;0.75;;;4.70;99.90;;;8.49;100.00;102454.44;5033489;28;20045;-76
2024/01/31 07:22:10;;;;;;;1.98;0.60;;;4.70;99.90;;;8.38;100.00;102465.59;5015094;28;20522;-77
2024/01/31 07:24:37;;;;;;;5.15;0.80;;;4.70;99.90;;;8.27;100.00;102458.53;5047076;28;20055;-77
2024/01/31 07:27:03;;;;;;;1.87;0.60;;;4.70;99.90;;;7.95;100.00;102468.06;5032179;28;20385;-76
2024/01/31 07:29:30;;;;;;;2.38;0.85;;;4.70;99.90;;;7.16;100.00;102484.81;5046728;28;20056;-77
2024/01/31 07:31:55;;;;;;;4.80;1.02;;;4.70;99.90;;;7.06;100.00;102479.44;5030172;28;20030;-77
2024/01/31 07:34:21;;;;;;;2.80;0.80;;;4.80;99.90;;;7.57;100.00;102482.63;5033304;28;20366;-77
2024/01/31 07:36:47;;;;;;;2.85;0.82;;;4.80;99.90;;;8.49;100.00;102473.47;5032603;28;20087;-77
2024/01/31 07:39:14;;;;;;;3.70;1.85;;;4.80;99.90;;;8.15;100.00;102480.50;5031241;28;20507;-77
2024/01/31 07:41:40;;;;;;;4.25;1.42;;;4.70;99.90;;;8.54;100.00;102473.88;5027083;28;20120;-77
2024/01/31 07:44:06;;;;;;;5.55;1.40;;;4.80;99.90;;;8.71;100.00;102483.00;4982796;28;20124;-78
2024/01/31 07:46:32;;;;;;;5.72;1.40;;;4.80;99.90;;;8.98;100.00;102491.19;5008128;28;20034;-77
2024/01/31 07:48:57;;;;;;;4.55;1.15;;;4.80;99.90;;;8.92;100.00;102481.78;5014410;28;20045;-77
2024/01/31 07:51:23;;;;;;;3.25;1.33;;;4.80;99.90;;;8.89;100.00;102493.00;5031132;28;20029;-78
2024/01/31 07:53:49;;;;;;;3.90;1.20;;;4.80;99.90;;;9.00;100.00;102479.09;5031997;28;20041;-77
2024/01/31 07:56:14;;;;;;;2.65;1.00;;;4.80;99.90;;;8.73;100.00;102488.31;5032394;28;20489;-77
2024/01/31 07:58:40;;;;;;;2.35;0.80;;;4.80;99.90;;;8.14;100.00;102494.28;5032802;28;20039;-77
2024/01/31 08:01:06;;;;;;;3.53;1.10;;;4.90;99.90;;;8.71;100.00;102483.00;5032047;28;20100;-77
2024/01/31 08:03:34;;;;;;;3.42;0.88;;;4.90;99.90;;;7.96;100.00;102486.94;5032310;28;20045;-77
2024/01/31 08:06:00;;;;;;;3.63;0.80;;;4.90;99.90;;;8.23;100.00;102493.31;5032626;28;20087;-77
2024/01/31 08:08:27;;;;;;;3.05;1.00;;;4.90;99.90;;;8.33;100.00;102496.81;5031109;28;20033;-76
2024/01/31 08:10:53;;;;;;;2.97;1.00;;;5.00;99.90;;;8.39;100.00;102467.28;5030895;28;20065;-76
2024/01/31 08:13:18;;;;;;;4.30;1.05;;;5.00;99.90;;;8.53;100.00;102482.22;5025619;28;20037;-76
2024/01/31 08:15:44;;;;;;;5.60;1.40;;;5.00;99.90;;;9.06;97.57;102475.75;5029344;28;20044;-75
2024/01/31 08:18:10;;;;;;;3.58;1.40;;;5.10;99.90;;;8.95;96.51;102477.91;5028669;28;20072;-76
2024/01/31 08:20:35;;;;;;;4.57;1.42;;;5.10;99.90;;;8.95;96.75;102481.47;5012520;28;20505;-76
2024/01/31 08:23:01;;;;;;;2.92;1.00;;;5.10;99.90;;;9.05;95.03;102471.34;5032160;28;20037;-76
2024/01/31 08:25:27;;;;;;;4.43;0.90;;;5.10;99.90;;;9.26;92.96;102477.38;5031809;28;20571;-76
2024/01/31 08:27:53;;;;;;;4.25;1.40;;;5.10;99.90;;;9.43;92.06;102478.31;5031223;28;20034;-76
2024/01/31 08:30:21;;;;;;;4.05;1.10;;;5.20;99.90;;;9.29;89.91;102471.59;5031706;28;20037;-75
2024/01/31 08:32:46;;;;;;;3.38;1.00;;;5.20;99.90;;;9.45;90.70;102462.63;5031530;28;22043;-76
2024/01/31 08:35:12;;;;;;;3.60;0.90;;;5.20;99.90;;;9.36;90.61;102464.47;5032277;28;20485;-76
2024/01/31 08:37:39;;;;;;;4.07;0.95;;;5.20;99.90;;;9.17;93.13;102471.91;5029528;28;20038;-76
2024/01/31 08:40:08;;;;;;;2.92;0.82;;;5.20;99.90;;;9.37;92.54;102465.34;5032009;28;20034;-76
2024/01/31 08:42:36;;;;;;;2.17;0.90;;;5.20;99.90;;;9.53;91.57;102470.84;5031820;28;20045;-75
2024/01/31 08:45:02;;;;;;;2.53;0.90;;;5.20;99.90;;;9.46;91.82;102472.53;5013324;28;20040;-76
2024/01/31 08:47:28;;;;;;;3.45;1.00;;;5.30;99.90;;;9.26;91.84;102485.56;5032098;28;20033;-76
2024/01/31 08:49:53;;;;;;;2.63;0.85;;;5.30;99.90;;;9.47;91.42;102494.16;5031993;28;20033;-76
2024/01/31 08:52:19;;;;;;;4.00;0.90;;;5.30;99.90;;;9.42;92.22;102492.94;5032327;28;20041;-76
2024/01/31 08:54:45;;;;;;;2.22;0.90;;;5.30;99.90;;;9.46;90.77;102486.13;5023547;28;20058;-76
2024/01/31 08:57:11;;;;;;;2.78;0.85;;;5.40;99.90;;;9.54;90.74;102491.63;5031875;28;20034;-76
2024/01/31 08:59:37;;;;;;;6.50;1.30;;;5.40;99.90;;;8.83;91.95;102482.78;5044445;28;20120;-75
2024/01/31 09:02:03;;;;;;;3.30;1.42;;;5.40;99.90;;;8.86;93.01;102498.78;5043630;28;20429;-75
2024/01/31 09:04:29;;;;;;;4.55;1.63;;;5.40;99.90;;;9.13;93.20;102497.72;5011303;28;20392;-76
2024/01/31 09:06:54;;;;;;;2.70;1.20;;;5.40;99.90;;;9.04;91.96;102496.84;5011393;28;20038;-75
2024/01/31 09:09:20;;;;;;;4.15;1.45;;;5.40;99.90;;;9.11;92.25;102501.66;5008383;28;20379;-75
2024/01/31 09:11:46;;;;;;;3.90;1.40;;;5.40;99.90;;;9.01;93.77;102505.31;5007603;28;20433;-76
2024/01/31 09:14:12;;;;;;;4.13;1.40;;;5.50;99.90;;;9.21;92.23;102524.16;5024218;28;20041;-77
2024/01/31 09:16:38;;;;;;;3.95;1.40;;;5.50;99.90;;;9.39;92.02;102515.91;5012108;28;20104;-76
2024/01/31 09:19:04;;;;;;;5.35;1.40;;;5.50;99.90;;;9.18;93.21;102532.66;5011329;28;20042;-75
2024/01/31 09:21:30;;;;;;;3.42;1.40;;;5.50;99.90;;;9.23;91.57;102524.84;5010042;28;20065;-75
2024/01/31 09:23:57;;;;;;;4.20;1.50;;;5.50;99.90;;;9.26;91.95;102513.63;5011928;28;20073;-76
2024/01/31 09:26:23;;;;;;;2.65;1.08;;;5.50;99.90;;;8.86;90.87;102520.56;5011547;28;20125;-76
2024/01/31 09:28:49;;;;;;;3.95;1.35;;;5.40;99.90;;;8.80;90.96;102527.47;5006308;28;20101;-76
2024/01/31 09:31:23;;;;;;;3.25;1.50;;;5.50;99.90;;;9.31;89.59;102537.66;5011168;28;20366;-76
2024/01/31 09:33:51;;;;;;;2.72;1.40;;;5.50;99.90;;;8.60;88.00;102538.53;4993661;28;20501;-75
2024/01/31 09:36:16;;;;;;;3.25;1.40;;;5.50;99.90;;;8.59;88.18;102536.00;5008031;28;20038;-76
2024/01/31 09:38:43;;;;;;;3.25;1.60;;;5.40;99.90;;;8.33;90.02;102542.19;5009947;28;20038;-76
2024/01/31 09:41:09;;;;;;;2.72;1.38;;;5.40;99.90;;;8.51;89.35;102539.50;5010205;28;20038;-76
2024/01/31 09:43:35;;;;;;;5.30;1.77;;;5.40;99.90;;;8.63;88.84;102538.25;5010700;28;20096;-75
2024/01/31 09:46:04;;;;;;;3.60;1.30;;;5.40;99.90;;;7.85;92.76;102555.97;5010538;28;20389;-75
2024/01/31 09:48:31;;;;;;;4.25;1.63;;;5.30;99.90;;;8.42;91.79;102546.69;5025381;28;20045;-76
2024/01/31 09:50:59;;;;;;;4.88;1.40;;;5.30;99.90;;;8.73;90.70;102545.47;5007054;28;20045;-75
2024/01/31 09:53:25;;;;;;;2.97;1.58;;;5.40;99.90;;;8.63;88.14;102515.63;5008556;28;20061;-75
2024/01/31 09:55:56;;;;;;;3.13;1.30;;;5.40;99.90;;;9.01;89.90;102529.81;5009367;28;20064;-76
2024/01/31 09:58:22;;;;;;;2.60;1.58;;;5.40;99.90;;;9.20;87.28;102520.59;5010187;28;20041;-76
2024/01/31 10:00:51;;;;;;;3.30;1.55;;;5.50;99.90;;;8.69;88.58;102525.03;5009774;28;20042;-76
2024/01/31 10:03:17;;;;;;;3.78;1.55;;;5.50;99.90;;;8.51;89.33;102530.50;4993361;28;20042;-77
2024/01/31 10:05:44;;;;;;;2.83;1.40;;;5.50;99.90;;;8.48;90.25;102532.47;4991485;28;20453;-77
2024/01/31 10:08:10;;;;;;;2.95;1.25;;;5.50;99.90;;;8.75;89.99;102519.81;4990310;28;20034;-75
2024/01/31 10:10:37;;;;;;;2.65;1.27;;;5.50;99.90;;;8.95;87.50;102505.13;5005886;28;20043;-76
2024/01/31 10:13:06;;;;;;;3.13;1.35;;;5.60;99.90;;;8.95;87.30;102507.84;4990370;28;20038;-77
2024/01/31 10:15:32;;;;;;;2.10;1.23;;;5.60;99.90;;;9.05;86.35;102498.56;4987646;28;20097;-78